createdAt,value
2022-10-02T00:00:39.968Z,11.04
2022-10-02T00:04:00.145Z,11.02
2022-10-02T00:07:19.500Z,11.05
2022-10-02T00:10:42.464Z,11.03
2022-10-02T00:14:03.568Z,11.02
2022-10-02T00:17:28.921Z,11.02
2022-10-02T00:20:50.925Z,11.03
2022-10-02T00:24:10.747Z,11.04
2022-10-02T00:27:44.466Z,11.05
2022-10-02T00:31:21.331Z,11.06
2022-10-02T00:34:42.777Z,11.06
2022-10-02T00:38:03.945Z,11.09
2022-10-02T00:41:40.408Z,11.08
2022-10-02T00:45:11.275Z,11.07
2022-10-02T00:48:54.047Z,11.05
2022-10-02T00:52:29.588Z,11.12
2022-10-02T00:56:07.293Z,11.11
2022-10-02T00:59:51.094Z,11.10
2022-10-02T01:03:23.493Z,11.10
2022-10-02T01:06:39.929Z,11.14
2022-10-02T01:09:56.321Z,11.17
2022-10-02T01:13:13.422Z,11.16
2022-10-02T01:16:29.740Z,11.16
2022-10-02T01:19:49.273Z,11.18
2022-10-02T01:23:11.278Z,11.20
2022-10-02T01:26:27.784Z,11.16
2022-10-02T01:29:43.805Z,11.23
2022-10-02T01:36:16.397Z,11.26
2022-10-02T01:39:33.533Z,11.30
2022-10-02T01:42:50.005Z,11.31
2022-10-02T01:46:20.938Z,11.31
2022-10-02T01:50:01.630Z,11.30
2022-10-02T01:53:23.830Z,11.35
2022-10-02T01:56:44.743Z,11.36
2022-10-02T02:00:12.714Z,11.36
2022-10-02T02:03:35.099Z,11.36
2022-10-02T02:06:55.628Z,11.35
2022-10-02T02:10:18.005Z,11.33
2022-10-02T02:13:38.540Z,11.33
2022-10-02T02:16:58.416Z,11.32
2022-10-02T02:20:18.887Z,11.30
2022-10-02T02:23:39.541Z,11.33
2022-10-02T02:26:58.246Z,11.32
2022-10-02T02:30:18.900Z,11.30
2022-10-02T02:33:40.694Z,11.29
2022-10-02T02:37:01.000Z,11.30
2022-10-02T02:40:23.158Z,11.28
2022-10-02T02:43:43.723Z,11.26
2022-10-02T02:47:11.659Z,11.25
2022-10-02T02:50:32.504Z,11.24
2022-10-02T02:53:52.930Z,11.24
2022-10-02T02:57:11.456Z,11.28
2022-10-02T03:00:28.813Z,11.26
2022-10-02T03:07:04.829Z,11.27
2022-10-02T03:10:27.113Z,11.26
2022-10-02T03:13:54.361Z,11.23
2022-10-02T03:20:31.690Z,11.16
2022-10-02T03:23:56.887Z,11.15
2022-10-02T03:27:17.825Z,11.13
2022-10-02T03:30:35.253Z,11.12
2022-10-02T03:33:54.498Z,11.11
2022-10-02T03:37:08.361Z,11.10
2022-10-02T03:40:26.872Z,11.08
2022-10-02T03:43:43.031Z,11.08
2022-10-02T03:46:59.009Z,11.08
2022-10-02T03:50:19.114Z,11.11
2022-10-02T03:53:40.361Z,11.10
2022-10-02T03:57:02.972Z,11.16
2022-10-02T04:00:24.886Z,11.15
2022-10-02T04:03:45.366Z,11.21
2022-10-02T04:07:07.802Z,11.21
2022-10-02T04:10:41.901Z,11.24
2022-10-02T04:14:03.362Z,11.26
2022-10-02T04:17:25.237Z,11.28
2022-10-02T04:20:48.393Z,11.29
2022-10-02T04:24:10.661Z,11.32
2022-10-02T04:27:31.829Z,11.34
2022-10-02T04:30:47.737Z,11.39
2022-10-02T04:34:06.753Z,11.38
2022-10-02T04:37:45.314Z,11.40
2022-10-02T04:41:16.363Z,11.39
2022-10-02T04:44:45.238Z,11.39
2022-10-02T04:51:32.488Z,11.38
2022-10-02T04:55:11.723Z,11.38
2022-10-02T04:58:34.213Z,11.40
2022-10-02T05:02:07.835Z,11.39
2022-10-02T05:05:38.168Z,11.39
2022-10-02T05:09:07.111Z,11.40
2022-10-02T05:12:48.039Z,11.41
2022-10-02T05:21:01.627Z,11.46
2022-10-02T05:24:42.851Z,11.46
2022-10-02T05:28:30.214Z,11.47
2022-10-02T05:31:56.798Z,11.50
2022-10-02T05:35:25.956Z,11.51
2022-10-02T05:39:05.945Z,11.53
2022-10-02T05:42:26.536Z,11.54
2022-10-02T05:45:45.762Z,11.55
2022-10-02T05:52:22.800Z,11.60
2022-10-02T05:55:43.696Z,11.63
2022-10-02T05:59:04.672Z,11.65
2022-10-02T06:02:30.006Z,11.68
2022-10-02T06:05:57.152Z,11.71
2022-10-02T06:09:20.232Z,11.70
2022-10-02T06:12:41.655Z,11.70
2022-10-02T06:16:04.054Z,11.71
2022-10-02T06:19:25.822Z,11.74
2022-10-02T06:22:48.074Z,11.76
2022-10-02T06:26:08.569Z,11.78
2022-10-02T06:29:29.686Z,11.81
2022-10-02T06:36:28.063Z,11.85
2022-10-02T06:40:02.626Z,11.90
2022-10-02T06:43:33.255Z,12.59
2022-10-02T06:46:58.143Z,13.16
2022-10-02T06:50:32.030Z,13.05
2022-10-02T06:54:06.409Z,13.10
2022-10-02T06:57:35.057Z,13.19
2022-10-02T07:00:56.440Z,13.17
2022-10-02T07:04:56.456Z,13.21
2022-10-02T07:08:17.305Z,13.43
2022-10-02T07:11:41.656Z,14.29
2022-10-02T07:15:17.060Z,14.50
2022-10-02T07:18:41.848Z,14.37
2022-10-02T07:22:20.303Z,14.40
2022-10-02T07:26:04.009Z,14.15
2022-10-02T07:29:35.306Z,14.12
2022-10-02T07:36:13.044Z,14.07
2022-10-02T07:39:44.763Z,14.04
2022-10-02T07:43:17.405Z,14.05
2022-10-02T07:52:06.783Z,14.32
2022-10-02T07:55:27.808Z,14.30
2022-10-02T07:58:51.662Z,14.31
2022-10-02T08:05:29.230Z,14.35
2022-10-02T08:08:52.287Z,14.36
2022-10-02T08:12:14.647Z,14.39
2022-10-02T08:15:33.003Z,14.47
2022-10-02T08:22:10.361Z,14.48
2022-10-02T08:25:31.962Z,14.49
2022-10-02T08:28:52.542Z,14.48
2022-10-02T08:38:57.375Z,14.64
2022-10-02T08:42:47.219Z,14.76
2022-10-02T08:52:33.702Z,15.14
2022-10-02T08:56:24.349Z,15.03
2022-10-02T09:00:17.464Z,14.96
2022-10-02T09:04:28.787Z,14.82
2022-10-02T09:08:16.266Z,14.76
2022-10-02T09:12:26.890Z,14.62
2022-10-02T09:15:53.485Z,14.54
2022-10-02T09:19:18.466Z,14.82
2022-10-02T09:23:19.137Z,14.80
2022-10-02T09:26:48.628Z,14.77
2022-10-02T09:30:32.559Z,14.64
2022-10-02T09:37:49.571Z,14.51
2022-10-02T09:41:35.523Z,14.47
2022-10-02T09:45:30.912Z,14.46
2022-10-02T09:52:51.083Z,14.43
2022-10-02T09:56:54.663Z,14.37
2022-10-02T10:00:43.156Z,14.33
2022-10-02T10:07:40.326Z,14.32
2022-10-02T10:12:00.577Z,14.33
2022-10-02T10:15:54.188Z,14.45
2022-10-02T10:23:26.362Z,15.15
2022-10-02T10:27:15.567Z,15.61
2022-10-02T10:30:56.818Z,15.59
2022-10-02T10:38:16.427Z,15.46
2022-10-02T10:42:16.759Z,15.29
2022-10-02T10:45:50.661Z,15.06
2022-10-02T10:52:30.881Z,14.99
2022-10-02T10:56:11.676Z,14.96
2022-10-02T11:00:16.564Z,14.83
2022-10-02T11:07:21.862Z,14.79
2022-10-02T11:10:56.005Z,14.87
2022-10-02T11:14:27.516Z,14.88
2022-10-02T11:21:29.548Z,15.09
2022-10-02T11:25:20.838Z,15.18
2022-10-02T11:29:29.812Z,15.20
2022-10-02T11:33:24.600Z,15.19
2022-10-02T11:37:06.522Z,15.16
2022-10-02T11:40:42.498Z,15.17
2022-10-02T11:44:18.656Z,15.14
2022-10-02T11:51:13.126Z,15.10
2022-10-02T11:54:57.210Z,15.12
2022-10-02T11:58:22.884Z,15.29
2022-10-02T12:01:46.811Z,15.42
2022-10-02T12:05:14.257Z,15.52
2022-10-02T12:08:39.289Z,15.59
2022-10-02T12:12:01.130Z,15.61
2022-10-02T12:15:24.719Z,15.58
2022-10-02T12:18:58.140Z,15.56
2022-10-02T12:22:36.130Z,15.50
2022-10-02T12:26:21.686Z,15.32
2022-10-02T12:30:08.888Z,14.98
2022-10-02T12:33:39.186Z,14.77
2022-10-02T12:37:02.649Z,14.58
2022-10-02T12:40:29.202Z,14.44
2022-10-02T12:44:37.915Z,14.38
2022-10-02T12:51:40.867Z,14.24
2022-10-02T12:55:43.828Z,14.29
2022-10-02T12:59:10.673Z,14.27
2022-10-02T13:03:02.567Z,14.25
2022-10-02T13:06:54.115Z,14.31
2022-10-02T13:10:17.693Z,14.30
2022-10-02T13:14:06.349Z,14.33
2022-10-02T13:22:21.907Z,14.43
2022-10-02T13:25:50.566Z,14.45
2022-10-02T13:29:30.123Z,14.48
2022-10-02T13:38:55.932Z,14.55
2022-10-02T13:42:25.323Z,14.56
2022-10-02T13:45:46.263Z,14.58
2022-10-02T13:52:25.542Z,14.55
2022-10-02T13:55:49.021Z,14.59
2022-10-02T13:59:23.780Z,14.63
2022-10-02T14:03:23.651Z,14.64
2022-10-02T14:06:44.422Z,14.69
2022-10-02T14:10:09.291Z,14.66
2022-10-02T14:13:44.644Z,14.68
2022-10-02T14:24:09.878Z,14.69
2022-10-02T14:27:33.423Z,14.71
2022-10-02T14:31:01.478Z,14.69
2022-10-02T14:35:11.771Z,14.66
2022-10-02T14:38:43.531Z,14.57
2022-10-02T14:42:28.776Z,14.37
2022-10-02T14:46:29.617Z,14.28
2022-10-02T14:50:07.213Z,13.91
2022-10-02T14:53:57.757Z,13.72
2022-10-02T14:57:37.291Z,13.45
2022-10-02T15:01:11.709Z,13.29
2022-10-02T15:04:49.123Z,13.16
2022-10-02T15:08:07.745Z,13.08
2022-10-02T15:11:40.739Z,12.94
2022-10-02T15:15:11.150Z,12.81
2022-10-02T15:21:52.831Z,12.70
2022-10-02T15:25:21.294Z,12.60
2022-10-02T15:28:52.791Z,12.53
2022-10-02T15:32:47.971Z,12.40
2022-10-02T15:40:06.274Z,12.26
2022-10-02T15:43:48.047Z,12.27
2022-10-02T15:47:11.917Z,12.30
2022-10-02T15:53:59.591Z,12.24
2022-10-02T15:57:30.821Z,12.28
2022-10-02T16:01:09.686Z,12.21
2022-10-02T16:11:14.481Z,12.26
2022-10-02T16:14:43.082Z,12.22
2022-10-02T16:18:25.278Z,12.18
2022-10-02T16:22:15.621Z,12.13
2022-10-02T16:25:57.693Z,12.12
2022-10-02T16:29:30.757Z,12.12
2022-10-02T16:33:02.909Z,12.11
2022-10-02T16:39:52.102Z,12.13
2022-10-02T16:44:02.012Z,12.17
2022-10-02T16:47:25.724Z,12.13
2022-10-02T16:50:56.582Z,12.06
2022-10-02T16:54:23.103Z,12.07
2022-10-02T16:57:59.827Z,12.02
2022-10-02T17:01:26.859Z,11.95
2022-10-02T17:08:07.255Z,11.87
2022-10-02T17:11:32.369Z,11.84
2022-10-02T17:14:55.908Z,11.75
2022-10-02T17:18:24.277Z,11.74
2022-10-02T17:21:50.499Z,11.68
2022-10-02T17:25:22.794Z,11.66
2022-10-02T17:28:44.645Z,11.65
2022-10-02T17:32:04.013Z,11.67
2022-10-02T17:35:35.449Z,11.68
2022-10-02T17:39:11.571Z,11.67
2022-10-02T17:42:38.798Z,11.65
2022-10-02T17:46:02.530Z,11.68
2022-10-02T17:52:55.344Z,11.69
2022-10-02T17:56:43.396Z,11.69
2022-10-02T18:00:22.157Z,11.68
2022-10-02T18:03:50.845Z,11.69
2022-10-02T18:07:18.251Z,11.64
2022-10-02T18:10:40.527Z,11.61
2022-10-02T18:14:11.057Z,11.63
2022-10-02T18:17:32.589Z,11.64
2022-10-02T18:24:45.739Z,11.68
2022-10-02T18:28:30.285Z,11.68
2022-10-02T18:32:16.708Z,11.69
2022-10-02T18:35:59.180Z,11.73
2022-10-02T18:39:26.151Z,11.69
2022-10-02T18:42:59.066Z,11.68
2022-10-02T18:46:28.159Z,11.64
2022-10-02T18:50:05.788Z,11.61
2022-10-02T18:53:41.258Z,11.60
2022-10-02T18:57:12.239Z,11.59
2022-10-02T19:00:32.045Z,11.54
2022-10-02T19:04:07.310Z,11.53
2022-10-02T19:10:48.951Z,11.52
2022-10-02T19:14:14.907Z,11.56
2022-10-02T19:17:37.651Z,11.62
2022-10-02T19:24:14.668Z,11.67
2022-10-02T19:27:36.321Z,11.55
2022-10-02T19:30:57.806Z,11.44
2022-10-02T19:34:18.743Z,11.38
2022-10-02T19:37:35.523Z,11.36
2022-10-02T19:40:59.337Z,11.25
2022-10-02T19:44:23.713Z,11.28
2022-10-02T19:47:46.251Z,11.20
2022-10-02T19:51:08.168Z,11.21
2022-10-02T19:54:30.014Z,11.12
2022-10-02T19:57:48.628Z,11.15
2022-10-02T20:01:06.704Z,11.12
2022-10-02T20:04:27.821Z,11.13
2022-10-02T20:07:47.613Z,11.06
2022-10-02T20:11:09.570Z,10.97
2022-10-02T20:14:31.192Z,10.95
2022-10-02T20:17:48.270Z,10.96
2022-10-02T20:24:27.933Z,10.96
2022-10-02T20:27:52.750Z,10.94
2022-10-02T20:31:14.546Z,10.93
2022-10-02T20:34:37.391Z,10.89
2022-10-02T20:37:57.439Z,10.88
2022-10-02T20:41:14.271Z,10.87
2022-10-02T20:44:38.204Z,10.84
2022-10-02T20:48:25.836Z,10.82
2022-10-02T20:52:10.690Z,10.80
2022-10-02T20:55:36.149Z,10.81
2022-10-02T20:59:41.251Z,10.77
2022-10-02T21:03:22.494Z,10.73
2022-10-02T21:07:06.562Z,10.70
2022-10-02T21:10:59.598Z,10.68
2022-10-02T21:14:56.985Z,10.66
2022-10-02T21:18:56.463Z,10.63
2022-10-02T21:22:54.598Z,10.55
2022-10-02T21:26:46.878Z,10.54
2022-10-02T21:30:19.945Z,10.48
2022-10-02T21:33:40.008Z,10.47
2022-10-02T21:37:04.062Z,10.45
2022-10-02T21:41:07.431Z,10.52
2022-10-02T21:45:24.894Z,10.54
2022-10-02T21:49:46.465Z,10.59
2022-10-02T21:53:36.865Z,10.61
2022-10-02T21:57:46.866Z,10.63
2022-10-02T22:02:09.746Z,10.59
2022-10-02T22:05:52.957Z,10.59
2022-10-02T22:09:45.480Z,10.52
2022-10-02T22:13:28.688Z,10.46
2022-10-02T22:17:05.721Z,10.44
2022-10-02T22:21:02.115Z,10.43
2022-10-02T22:24:38.783Z,10.37
2022-10-02T22:28:33.625Z,10.39
2022-10-02T22:32:18.532Z,10.40
2022-10-02T22:35:44.447Z,10.36
2022-10-02T22:39:08.240Z,10.32
2022-10-02T22:42:30.334Z,10.34
2022-10-02T22:45:50.338Z,10.35
2022-10-02T22:49:13.772Z,10.38
2022-10-02T22:52:33.779Z,10.44
2022-10-02T22:55:56.360Z,10.43
2022-10-02T22:59:18.965Z,10.43
2022-10-02T23:02:40.756Z,10.44
2022-10-02T23:06:02.334Z,10.44
2022-10-02T23:09:24.086Z,10.48
2022-10-02T23:12:49.263Z,10.48
2022-10-02T23:16:10.053Z,10.43
2022-10-02T23:19:30.857Z,10.45
2022-10-02T23:22:53.791Z,10.49
2022-10-02T23:26:14.770Z,10.46
2022-10-02T23:29:42.993Z,10.50
2022-10-02T23:33:05.572Z,10.50
2022-10-02T23:39:42.912Z,10.56
2022-10-02T23:43:04.544Z,10.58
2022-10-02T23:46:26.566Z,10.61
2022-10-02T23:49:47.388Z,10.62
2022-10-02T23:53:32.402Z,10.62
2022-10-02T23:57:14.185Z,10.62
